sensor_id;sensor_type;location;lat;lon;timestamp;P1;durP1;ratioP1;P2;durP2;ratioP2
41687;SDS011;27371;42.686;23.362;2023-05-14T00:00:38;6.22;;;2.20;;
41687;SDS011;27371;42.686;23.362;2023-05-14T00:03:03;5.22;;;2.03;;
41687;SDS011;27371;42.686;23.362;2023-05-14T00:05:29;4.07;;;1.88;;
41687;SDS011;27371;42.686;23.362;2023-05-14T00:07:55;4.30;;;2.28;;
41687;SDS011;27371;42.686;23.362;2023-05-14T00:10:20;5.88;;;2.33;;
41687;SDS011;27371;42.686;23.362;2023-05-14T00:12:46;4.55;;;2.22;;
41687;SDS011;27371;42.686;23.362;2023-05-14T00:15:12;5.00;;;2.42;;
41687;SDS011;27371;42.686;23.362;2023-05-14T00:17:37;7.22;;;2.70;;
41687;SDS011;27371;42.686;23.362;2023-05-14T00:20:03;7.00;;;2.45;;
41687;SDS011;27371;42.686;23.362;2023-05-14T00:22:33;5.90;;;2.42;;
41687;SDS011;27371;42.686;23.362;2023-05-14T00:24:59;8.70;;;2.53;;
41687;SDS011;27371;42.686;23.362;2023-05-14T00:27:24;6.75;;;2.60;;
41687;SDS011;27371;42.686;23.362;2023-05-14T00:29:50;5.82;;;2.25;;
41687;SDS011;27371;42.686;23.362;2023-05-14T00:32:15;3.58;;;1.98;;
41687;SDS011;27371;42.686;23.362;2023-05-14T00:34:41;9.73;;;2.45;;
41687;SDS011;27371;42.686;23.362;2023-05-14T00:37:06;16.90;;;2.88;;
41687;SDS011;27371;42.686;23.362;2023-05-14T00:39:32;4.18;;;2.30;;
41687;SDS011;27371;42.686;23.362;2023-05-14T00:41:58;3.13;;;2.22;;
41687;SDS011;27371;42.686;23.362;2023-05-14T00:44:24;5.10;;;2.08;;
41687;SDS011;27371;42.686;23.362;2023-05-14T00:46:49;8.82;;;2.40;;
41687;SDS011;27371;42.686;23.362;2023-05-14T00:49:15;6.45;;;2.47;;
41687;SDS011;27371;42.686;23.362;2023-05-14T00:51:41;3.45;;;1.73;;
41687;SDS011;27371;42.686;23.362;2023-05-14T00:54:10;3.60;;;2.00;;
41687;SDS011;27371;42.686;23.362;2023-05-14T00:56:37;6.00;;;2.25;;
41687;SDS011;27371;42.686;23.362;2023-05-14T00:59:03;3.95;;;1.98;;
41687;SDS011;27371;42.686;23.362;2023-05-14T01:01:28;4.32;;;1.83;;
41687;SDS011;27371;42.686;23.362;2023-05-14T01:03:55;3.75;;;1.80;;
41687;SDS011;27371;42.686;23.362;2023-05-14T01:17:21;4.13;;;1.30;;
41687;SDS011;27371;42.686;23.362;2023-05-14T01:19:49;2.15;;;1.23;;
41687;SDS011;27371;42.686;23.362;2023-05-14T01:22:16;3.85;;;1.60;;
41687;SDS011;27371;42.686;23.362;2023-05-14T01:24:41;3.00;;;1.27;;
41687;SDS011;27371;42.686;23.362;2023-05-14T01:29:52;6.13;;;1.90;;
41687;SDS011;27371;42.686;23.362;2023-05-14T01:32:26;10.77;;;1.77;;
41687;SDS011;27371;42.686;23.362;2023-05-14T01:34:54;2.65;;;1.48;;
41687;SDS011;27371;42.686;23.362;2023-05-14T01:37:22;3.03;;;1.38;;
41687;SDS011;27371;42.686;23.362;2023-05-14T01:39:49;2.30;;;1.30;;
41687;SDS011;27371;42.686;23.362;2023-05-14T01:42:16;3.63;;;1.40;;
41687;SDS011;27371;42.686;23.362;2023-05-14T01:44:41;5.57;;;1.63;;
41687;SDS011;27371;42.686;23.362;2023-05-14T01:47:07;5.78;;;1.70;;
41687;SDS011;27371;42.686;23.362;2023-05-14T01:49:33;2.08;;;1.17;;
41687;SDS011;27371;42.686;23.362;2023-05-14T01:51:58;2.17;;;1.23;;
41687;SDS011;27371;42.686;23.362;2023-05-14T01:54:24;4.93;;;1.50;;
41687;SDS011;27371;42.686;23.362;2023-05-14T01:56:50;3.35;;;1.50;;
41687;SDS011;27371;42.686;23.362;2023-05-14T01:59:15;4.22;;;1.67;;
41687;SDS011;27371;42.686;23.362;2023-05-14T02:01:41;5.25;;;2.10;;
41687;SDS011;27371;42.686;23.362;2023-05-14T02:04:07;6.43;;;1.52;;
41687;SDS011;27371;42.686;23.362;2023-05-14T02:06:32;3.25;;;1.35;;
41687;SDS011;27371;42.686;23.362;2023-05-14T02:08:58;5.43;;;1.55;;
41687;SDS011;27371;42.686;23.362;2023-05-14T02:11:24;3.78;;;1.25;;
41687;SDS011;27371;42.686;23.362;2023-05-14T02:13:50;2.45;;;1.35;;
41687;SDS011;27371;42.686;23.362;2023-05-14T02:16:15;5.47;;;1.52;;
41687;SDS011;27371;42.686;23.362;2023-05-14T02:18:41;2.50;;;1.48;;
41687;SDS011;27371;42.686;23.362;2023-05-14T02:21:07;3.08;;;1.10;;
41687;SDS011;27371;42.686;23.362;2023-05-14T02:23:32;9.10;;;1.52;;
41687;SDS011;27371;42.686;23.362;2023-05-14T02:25:58;3.72;;;1.40;;
41687;SDS011;27371;42.686;23.362;2023-05-14T02:28:26;4.22;;;1.63;;
41687;SDS011;27371;42.686;23.362;2023-05-14T02:30:51;4.18;;;1.55;;
41687;SDS011;27371;42.686;23.362;2023-05-14T02:33:22;4.63;;;1.55;;
41687;SDS011;27371;42.686;23.362;2023-05-14T02:35:47;2.88;;;1.50;;
41687;SDS011;27371;42.686;23.362;2023-05-14T02:38:13;4.65;;;1.70;;
41687;SDS011;27371;42.686;23.362;2023-05-14T02:40:38;3.15;;;1.73;;
41687;SDS011;27371;42.686;23.362;2023-05-14T02:43:04;5.15;;;1.42;;
41687;SDS011;27371;42.686;23.362;2023-05-14T02:45:30;2.95;;;1.60;;
41687;SDS011;27371;42.686;23.362;2023-05-14T02:47:55;3.78;;;1.40;;
41687;SDS011;27371;42.686;23.362;2023-05-14T02:50:21;2.63;;;1.60;;
41687;SDS011;27371;42.686;23.362;2023-05-14T02:52:46;4.07;;;1.40;;
41687;SDS011;27371;42.686;23.362;2023-05-14T02:55:11;3.92;;;1.20;;
41687;SDS011;27371;42.686;23.362;2023-05-14T02:57:37;2.88;;;1.50;;
41687;SDS011;27371;42.686;23.362;2023-05-14T03:00:03;7.15;;;1.30;;
41687;SDS011;27371;42.686;23.362;2023-05-14T03:02:29;3.03;;;1.40;;
41687;SDS011;27371;42.686;23.362;2023-05-14T03:04:54;4.40;;;1.27;;
41687;SDS011;27371;42.686;23.362;2023-05-14T03:07:21;3.20;;;1.48;;
41687;SDS011;27371;42.686;23.362;2023-05-14T03:09:47;5.35;;;1.70;;
41687;SDS011;27371;42.686;23.362;2023-05-14T03:12:12;6.10;;;2.45;;
41687;SDS011;27371;42.686;23.362;2023-05-14T03:14:38;3.63;;;1.50;;
41687;SDS011;27371;42.686;23.362;2023-05-14T03:17:03;3.83;;;1.30;;
41687;SDS011;27371;42.686;23.362;2023-05-14T03:19:29;2.05;;;1.10;;
41687;SDS011;27371;42.686;23.362;2023-05-14T03:21:55;4.00;;;1.65;;
41687;SDS011;27371;42.686;23.362;2023-05-14T03:24:20;3.42;;;1.35;;
41687;SDS011;27371;42.686;23.362;2023-05-14T03:26:46;3.58;;;1.60;;
41687;SDS011;27371;42.686;23.362;2023-05-14T03:29:11;3.05;;;1.48;;
41687;SDS011;27371;42.686;23.362;2023-05-14T03:31:37;4.43;;;1.58;;
41687;SDS011;27371;42.686;23.362;2023-05-14T03:34:02;5.18;;;1.52;;
41687;SDS011;27371;42.686;23.362;2023-05-14T03:36:28;5.82;;;1.70;;
41687;SDS011;27371;42.686;23.362;2023-05-14T03:38:54;3.35;;;1.85;;
41687;SDS011;27371;42.686;23.362;2023-05-14T03:41:19;3.67;;;1.75;;
41687;SDS011;27371;42.686;23.362;2023-05-14T03:43:45;3.38;;;1.40;;
41687;SDS011;27371;42.686;23.362;2023-05-14T03:46:11;6.35;;;2.08;;
41687;SDS011;27371;42.686;23.362;2023-05-14T03:48:36;3.45;;;1.55;;
41687;SDS011;27371;42.686;23.362;2023-05-14T03:51:02;4.00;;;1.80;;
41687;SDS011;27371;42.686;23.362;2023-05-14T03:53:27;3.20;;;1.90;;
41687;SDS011;27371;42.686;23.362;2023-05-14T03:55:53;3.00;;;1.50;;
41687;SDS011;27371;42.686;23.362;2023-05-14T03:58:19;3.83;;;1.60;;
41687;SDS011;27371;42.686;23.362;2023-05-14T04:00:45;4.20;;;1.70;;
41687;SDS011;27371;42.686;23.362;2023-05-14T04:03:11;2.17;;;1.65;;
41687;SDS011;27371;42.686;23.362;2023-05-14T04:05:37;3.38;;;1.45;;
41687;SDS011;27371;42.686;23.362;2023-05-14T04:08:02;2.38;;;1.50;;
41687;SDS011;27371;42.686;23.362;2023-05-14T04:10:28;3.20;;;1.77;;
41687;SDS011;27371;42.686;23.362;2023-05-14T04:12:53;2.63;;;1.70;;
41687;SDS011;27371;42.686;23.362;2023-05-14T04:15:20;3.85;;;1.70;;
41687;SDS011;27371;42.686;23.362;2023-05-14T04:17:45;3.00;;;1.48;;
41687;SDS011;27371;42.686;23.362;2023-05-14T04:20:11;4.85;;;1.92;;
41687;SDS011;27371;42.686;23.362;2023-05-14T04:22:36;3.13;;;1.73;;
41687;SDS011;27371;42.686;23.362;2023-05-14T04:25:02;5.03;;;1.77;;
41687;SDS011;27371;42.686;23.362;2023-05-14T04:27:27;3.17;;;1.65;;
41687;SDS011;27371;42.686;23.362;2023-05-14T04:29:53;2.40;;;1.73;;
41687;SDS011;27371;42.686;23.362;2023-05-14T04:32:18;4.65;;;1.52;;
41687;SDS011;27371;42.686;23.362;2023-05-14T04:34:44;2.55;;;1.70;;
41687;SDS011;27371;42.686;23.362;2023-05-14T04:37:11;4.38;;;1.90;;
41687;SDS011;27371;42.686;23.362;2023-05-14T04:39:36;7.28;;;2.25;;
41687;SDS011;27371;42.686;23.362;2023-05-14T04:42:02;3.65;;;2.08;;
41687;SDS011;27371;42.686;23.362;2023-05-14T04:44:28;3.20;;;2.00;;
41687;SDS011;27371;42.686;23.362;2023-05-14T04:46:53;3.33;;;1.75;;
41687;SDS011;27371;42.686;23.362;2023-05-14T04:49:19;3.55;;;1.95;;
41687;SDS011;27371;42.686;23.362;2023-05-14T04:51:45;2.63;;;1.60;;
41687;SDS011;27371;42.686;23.362;2023-05-14T04:54:12;4.88;;;1.70;;
41687;SDS011;27371;42.686;23.362;2023-05-14T04:56:37;2.42;;;1.60;;
41687;SDS011;27371;42.686;23.362;2023-05-14T04:59:03;2.38;;;2.10;;
41687;SDS011;27371;42.686;23.362;2023-05-14T05:01:28;4.93;;;2.25;;
41687;SDS011;27371;42.686;23.362;2023-05-14T05:03:54;4.43;;;2.00;;
41687;SDS011;27371;42.686;23.362;2023-05-14T05:06:21;4.82;;;1.83;;
41687;SDS011;27371;42.686;23.362;2023-05-14T05:08:47;4.40;;;1.92;;
41687;SDS011;27371;42.686;23.362;2023-05-14T05:11:12;3.63;;;2.00;;
41687;SDS011;27371;42.686;23.362;2023-05-14T05:13:38;5.30;;;1.90;;
41687;SDS011;27371;42.686;23.362;2023-05-14T05:16:03;3.95;;;2.13;;
41687;SDS011;27371;42.686;23.362;2023-05-14T05:18:29;5.90;;;2.20;;
41687;SDS011;27371;42.686;23.362;2023-05-14T05:20:54;2.75;;;1.77;;
41687;SDS011;27371;42.686;23.362;2023-05-14T05:23:20;2.63;;;1.85;;
41687;SDS011;27371;42.686;23.362;2023-05-14T05:25:45;3.40;;;2.33;;
41687;SDS011;27371;42.686;23.362;2023-05-14T05:28:11;6.80;;;2.30;;
41687;SDS011;27371;42.686;23.362;2023-05-14T05:30:36;3.22;;;2.03;;
41687;SDS011;27371;42.686;23.362;2023-05-14T05:33:02;2.63;;;1.80;;
41687;SDS011;27371;42.686;23.362;2023-05-14T05:35:27;4.18;;;2.42;;
41687;SDS011;27371;42.686;23.362;2023-05-14T05:37:53;6.63;;;3.00;;
41687;SDS011;27371;42.686;23.362;2023-05-14T05:40:19;4.70;;;2.38;;
41687;SDS011;27371;42.686;23.362;2023-05-14T05:42:44;6.95;;;2.35;;
41687;SDS011;27371;42.686;23.362;2023-05-14T05:45:10;4.43;;;2.38;;
41687;SDS011;27371;42.686;23.362;2023-05-14T05:47:35;4.55;;;2.70;;
41687;SDS011;27371;42.686;23.362;2023-05-14T05:50:01;4.15;;;2.80;;
41687;SDS011;27371;42.686;23.362;2023-05-14T05:52:26;4.82;;;2.75;;
41687;SDS011;27371;42.686;23.362;2023-05-14T05:54:52;5.03;;;3.00;;
41687;SDS011;27371;42.686;23.362;2023-05-14T05:57:17;5.40;;;2.88;;
41687;SDS011;27371;42.686;23.362;2023-05-14T05:59:43;3.30;;;2.88;;
41687;SDS011;27371;42.686;23.362;2023-05-14T06:02:08;4.28;;;2.90;;
41687;SDS011;27371;42.686;23.362;2023-05-14T06:04:34;4.35;;;2.90;;
41687;SDS011;27371;42.686;23.362;2023-05-14T06:06:59;5.57;;;3.00;;
41687;SDS011;27371;42.686;23.362;2023-05-14T06:09:25;5.75;;;3.03;;
41687;SDS011;27371;42.686;23.362;2023-05-14T06:11:50;5.53;;;3.28;;
41687;SDS011;27371;42.686;23.362;2023-05-14T06:14:16;5.68;;;3.88;;
41687;SDS011;27371;42.686;23.362;2023-05-14T06:16:41;5.15;;;3.40;;
41687;SDS011;27371;42.686;23.362;2023-05-14T06:19:07;7.13;;;3.72;;
41687;SDS011;27371;42.686;23.362;2023-05-14T06:21:32;8.05;;;4.18;;
41687;SDS011;27371;42.686;23.362;2023-05-14T06:23:58;8.05;;;3.83;;
41687;SDS011;27371;42.686;23.362;2023-05-14T06:26:24;10.02;;;4.53;;
41687;SDS011;27371;42.686;23.362;2023-05-14T06:28:50;4.30;;;3.40;;
41687;SDS011;27371;42.686;23.362;2023-05-14T06:31:16;6.22;;;3.63;;
41687;SDS011;27371;42.686;23.362;2023-05-14T06:33:42;4.95;;;3.53;;
41687;SDS011;27371;42.686;23.362;2023-05-14T06:36:07;6.15;;;3.38;;
41687;SDS011;27371;42.686;23.362;2023-05-14T06:38:33;7.05;;;3.00;;
41687;SDS011;27371;42.686;23.362;2023-05-14T06:40:59;5.95;;;4.00;;
41687;SDS011;27371;42.686;23.362;2023-05-14T06:43:24;10.27;;;4.43;;
41687;SDS011;27371;42.686;23.362;2023-05-14T06:45:50;6.85;;;3.70;;
41687;SDS011;27371;42.686;23.362;2023-05-14T06:48:16;6.85;;;3.85;;
41687;SDS011;27371;42.686;23.362;2023-05-14T06:50:43;7.57;;;4.03;;
41687;SDS011;27371;42.686;23.362;2023-05-14T06:53:09;8.13;;;4.47;;
41687;SDS011;27371;42.686;23.362;2023-05-14T06:55:35;5.75;;;4.43;;
41687;SDS011;27371;42.686;23.362;2023-05-14T06:58:00;6.75;;;4.68;;
41687;SDS011;27371;42.686;23.362;2023-05-14T07:00:26;7.78;;;4.88;;
41687;SDS011;27371;42.686;23.362;2023-05-14T07:02:52;7.55;;;4.15;;
41687;SDS011;27371;42.686;23.362;2023-05-14T07:05:17;7.50;;;4.90;;
41687;SDS011;27371;42.686;23.362;2023-05-14T07:07:43;7.80;;;5.03;;
41687;SDS011;27371;42.686;23.362;2023-05-14T07:10:09;7.57;;;5.35;;
41687;SDS011;27371;42.686;23.362;2023-05-14T07:12:35;8.38;;;4.63;;
41687;SDS011;27371;42.686;23.362;2023-05-14T07:15:00;6.90;;;4.70;;
41687;SDS011;27371;42.686;23.362;2023-05-14T07:17:26;7.25;;;4.65;;
41687;SDS011;27371;42.686;23.362;2023-05-14T07:19:51;8.15;;;4.47;;
41687;SDS011;27371;42.686;23.362;2023-05-14T07:22:19;6.50;;;3.85;;
41687;SDS011;27371;42.686;23.362;2023-05-14T07:24:45;7.75;;;4.50;;
41687;SDS011;27371;42.686;23.362;2023-05-14T07:27:10;6.53;;;4.30;;
41687;SDS011;27371;42.686;23.362;2023-05-14T07:29:36;8.60;;;4.15;;
41687;SDS011;27371;42.686;23.362;2023-05-14T07:32:01;9.23;;;4.45;;
41687;SDS011;27371;42.686;23.362;2023-05-14T07:34:27;8.55;;;4.70;;
41687;SDS011;27371;42.686;23.362;2023-05-14T07:36:53;6.55;;;4.28;;
41687;SDS011;27371;42.686;23.362;2023-05-14T07:39:18;6.35;;;4.47;;
41687;SDS011;27371;42.686;23.362;2023-05-14T07:41:44;8.18;;;4.93;;
41687;SDS011;27371;42.686;23.362;2023-05-14T07:44:10;6.90;;;4.18;;
41687;SDS011;27371;42.686;23.362;2023-05-14T07:46:35;6.15;;;4.10;;
41687;SDS011;27371;42.686;23.362;2023-05-14T07:49:01;10.93;;;4.90;;
41687;SDS011;27371;42.686;23.362;2023-05-14T07:51:26;7.10;;;4.60;;
41687;SDS011;27371;42.686;23.362;2023-05-14T07:53:52;8.80;;;5.22;;
41687;SDS011;27371;42.686;23.362;2023-05-14T07:56:19;9.50;;;5.35;;
41687;SDS011;27371;42.686;23.362;2023-05-14T07:58:46;10.20;;;4.85;;
41687;SDS011;27371;42.686;23.362;2023-05-14T08:01:11;7.68;;;4.88;;
41687;SDS011;27371;42.686;23.362;2023-05-14T08:03:37;7.85;;;5.90;;
41687;SDS011;27371;42.686;23.362;2023-05-14T08:06:03;11.60;;;5.55;;
41687;SDS011;27371;42.686;23.362;2023-05-14T08:08:28;8.00;;;4.55;;
41687;SDS011;27371;42.686;23.362;2023-05-14T08:10:54;5.63;;;4.15;;
41687;SDS011;27371;42.686;23.362;2023-05-14T08:13:19;8.75;;;5.10;;
41687;SDS011;27371;42.686;23.362;2023-05-14T08:15:45;7.70;;;5.05;;
41687;SDS011;27371;42.686;23.362;2023-05-14T08:18:11;7.38;;;4.63;;
41687;SDS011;27371;42.686;23.362;2023-05-14T08:20:36;6.22;;;4.60;;
41687;SDS011;27371;42.686;23.362;2023-05-14T08:23:02;10.05;;;5.00;;
41687;SDS011;27371;42.686;23.362;2023-05-14T08:25:27;9.27;;;5.10;;
41687;SDS011;27371;42.686;23.362;2023-05-14T08:27:53;7.88;;;4.75;;
41687;SDS011;27371;42.686;23.362;2023-05-14T08:30:19;5.13;;;4.05;;
41687;SDS011;27371;42.686;23.362;2023-05-14T08:32:46;6.68;;;4.68;;
41687;SDS011;27371;42.686;23.362;2023-05-14T08:35:12;8.73;;;5.28;;
41687;SDS011;27371;42.686;23.362;2023-05-14T08:37:37;5.70;;;4.53;;
41687;SDS011;27371;42.686;23.362;2023-05-14T08:40:03;6.28;;;4.38;;
41687;SDS011;27371;42.686;23.362;2023-05-14T08:42:29;7.80;;;4.95;;
41687;SDS011;27371;42.686;23.362;2023-05-14T08:45:02;5.00;;;4.40;;
41687;SDS011;27371;42.686;23.362;2023-05-14T08:47:28;5.90;;;4.70;;
41687;SDS011;27371;42.686;23.362;2023-05-14T08:50:04;8.73;;;4.57;;
41687;SDS011;27371;42.686;23.362;2023-05-14T08:52:31;5.35;;;4.32;;
41687;SDS011;27371;42.686;23.362;2023-05-14T08:55:06;9.07;;;5.50;;
41687;SDS011;27371;42.686;23.362;2023-05-14T08:59:58;8.57;;;5.72;;
41687;SDS011;27371;42.686;23.362;2023-05-14T09:02:28;9.10;;;5.88;;
41687;SDS011;27371;42.686;23.362;2023-05-14T09:04:56;8.82;;;5.32;;
41687;SDS011;27371;42.686;23.362;2023-05-14T09:07:23;7.28;;;4.97;;
41687;SDS011;27371;42.686;23.362;2023-05-14T09:09:48;10.75;;;5.15;;
41687;SDS011;27371;42.686;23.362;2023-05-14T09:12:15;5.57;;;4.78;;
41687;SDS011;27371;42.686;23.362;2023-05-14T09:14:41;7.20;;;5.03;;
41687;SDS011;27371;42.686;23.362;2023-05-14T09:17:07;6.70;;;5.10;;
41687;SDS011;27371;42.686;23.362;2023-05-14T09:19:32;6.68;;;4.57;;
41687;SDS011;27371;42.686;23.362;2023-05-14T09:21:58;7.88;;;4.43;;
41687;SDS011;27371;42.686;23.362;2023-05-14T09:24:25;7.45;;;4.93;;
41687;SDS011;27371;42.686;23.362;2023-05-14T09:26:55;6.90;;;4.65;;
41687;SDS011;27371;42.686;23.362;2023-05-14T09:29:28;6.75;;;4.72;;
41687;SDS011;27371;42.686;23.362;2023-05-14T09:31:54;11.45;;;4.85;;
41687;SDS011;27371;42.686;23.362;2023-05-14T09:34:22;8.95;;;5.00;;
41687;SDS011;27371;42.686;23.362;2023-05-14T09:36:49;8.02;;;4.93;;
41687;SDS011;27371;42.686;23.362;2023-05-14T09:39:14;10.07;;;5.03;;
41687;SDS011;27371;42.686;23.362;2023-05-14T09:41:40;7.63;;;4.20;;
41687;SDS011;27371;42.686;23.362;2023-05-14T09:44:05;7.35;;;5.20;;
41687;SDS011;27371;42.686;23.362;2023-05-14T09:46:31;5.93;;;5.05;;
41687;SDS011;27371;42.686;23.362;2023-05-14T09:48:56;7.15;;;5.03;;
41687;SDS011;27371;42.686;23.362;2023-05-14T09:51:22;7.72;;;5.32;;
41687;SDS011;27371;42.686;23.362;2023-05-14T09:53:49;7.68;;;5.68;;
41687;SDS011;27371;42.686;23.362;2023-05-14T09:56:16;9.63;;;5.82;;
41687;SDS011;27371;42.686;23.362;2023-05-14T09:58:42;6.68;;;5.75;;
41687;SDS011;27371;42.686;23.362;2023-05-14T10:01:08;6.53;;;4.88;;
41687;SDS011;27371;42.686;23.362;2023-05-14T10:03:34;6.57;;;4.80;;
41687;SDS011;27371;42.686;23.362;2023-05-14T10:06:01;8.50;;;5.78;;
41687;SDS011;27371;42.686;23.362;2023-05-14T10:08:32;6.93;;;5.20;;
41687;SDS011;27371;42.686;23.362;2023-05-14T10:10:59;5.20;;;4.65;;
41687;SDS011;27371;42.686;23.362;2023-05-14T10:13:29;7.05;;;4.93;;
41687;SDS011;27371;42.686;23.362;2023-05-14T10:16:05;8.80;;;5.28;;
41687;SDS011;27371;42.686;23.362;2023-05-14T10:18:38;7.05;;;5.90;;
41687;SDS011;27371;42.686;23.362;2023-05-14T10:21:07;8.25;;;6.22;;
41687;SDS011;27371;42.686;23.362;2023-05-14T10:23:33;7.82;;;6.30;;
41687;SDS011;27371;42.686;23.362;2023-05-14T10:26:04;6.90;;;5.70;;
41687;SDS011;27371;42.686;23.362;2023-05-14T10:28:30;7.18;;;5.40;;
41687;SDS011;27371;42.686;23.362;2023-05-14T10:30:56;6.95;;;5.50;;
41687;SDS011;27371;42.686;23.362;2023-05-14T10:33:24;6.10;;;4.68;;
41687;SDS011;27371;42.686;23.362;2023-05-14T10:35:51;7.20;;;6.50;;
41687;SDS011;27371;42.686;23.362;2023-05-14T10:38:21;8.15;;;6.38;;
41687;SDS011;27371;42.686;23.362;2023-05-14T10:40:53;15.18;;;6.88;;
41687;SDS011;27371;42.686;23.362;2023-05-14T10:43:28;6.65;;;5.68;;
41687;SDS011;27371;42.686;23.362;2023-05-14T10:45:55;10.05;;;6.03;;
41687;SDS011;27371;42.686;23.362;2023-05-14T10:48:22;7.90;;;6.10;;
41687;SDS011;27371;42.686;23.362;2023-05-14T10:50:49;6.32;;;5.72;;
41687;SDS011;27371;42.686;23.362;2023-05-14T10:53:16;8.60;;;6.68;;
41687;SDS011;27371;42.686;23.362;2023-05-14T10:55:41;8.63;;;6.45;;
41687;SDS011;27371;42.686;23.362;2023-05-14T10:58:08;7.90;;;6.15;;
41687;SDS011;27371;42.686;23.362;2023-05-14T11:00:35;6.53;;;5.80;;
41687;SDS011;27371;42.686;23.362;2023-05-14T11:03:05;6.82;;;5.45;;
41687;SDS011;27371;42.686;23.362;2023-05-14T11:05:31;7.25;;;6.53;;
41687;SDS011;27371;42.686;23.362;2023-05-14T11:08:00;7.22;;;6.32;;
41687;SDS011;27371;42.686;23.362;2023-05-14T11:10:29;6.63;;;5.63;;
41687;SDS011;27371;42.686;23.362;2023-05-14T11:12:56;7.30;;;6.32;;
41687;SDS011;27371;42.686;23.362;2023-05-14T11:15:23;7.18;;;6.00;;
41687;SDS011;27371;42.686;23.362;2023-05-14T11:17:50;8.23;;;7.07;;
41687;SDS011;27371;42.686;23.362;2023-05-14T11:20:17;8.43;;;6.35;;
41687;SDS011;27371;42.686;23.362;2023-05-14T11:22:44;6.57;;;5.85;;
41687;SDS011;27371;42.686;23.362;2023-05-14T11:25:11;9.85;;;6.63;;
41687;SDS011;27371;42.686;23.362;2023-05-14T11:27:39;7.63;;;5.95;;
41687;SDS011;27371;42.686;23.362;2023-05-14T11:30:16;7.60;;;6.05;;
41687;SDS011;27371;42.686;23.362;2023-05-14T11:32:43;8.90;;;6.35;;
41687;SDS011;27371;42.686;23.362;2023-05-14T11:35:10;8.75;;;6.82;;
41687;SDS011;27371;42.686;23.362;2023-05-14T11:37:36;7.13;;;5.97;;
41687;SDS011;27371;42.686;23.362;2023-05-14T11:40:05;7.90;;;6.47;;
41687;SDS011;27371;42.686;23.362;2023-05-14T11:42:33;7.78;;;6.68;;
41687;SDS011;27371;42.686;23.362;2023-05-14T11:45:00;10.60;;;7.35;;
41687;SDS011;27371;42.686;23.362;2023-05-14T11:47:28;7.18;;;6.47;;
41687;SDS011;27371;42.686;23.362;2023-05-14T11:49:54;7.53;;;6.82;;
41687;SDS011;27371;42.686;23.362;2023-05-14T11:52:20;7.20;;;6.50;;
41687;SDS011;27371;42.686;23.362;2023-05-14T11:54:46;9.32;;;7.00;;
41687;SDS011;27371;42.686;23.362;2023-05-14T11:57:22;6.82;;;5.70;;
41687;SDS011;27371;42.686;23.362;2023-05-14T11:59:48;7.10;;;6.40;;
41687;SDS011;27371;42.686;23.362;2023-05-14T12:02:20;7.47;;;6.40;;
41687;SDS011;27371;42.686;23.362;2023-05-14T12:04:50;7.50;;;6.70;;
41687;SDS011;27371;42.686;23.362;2023-05-14T12:07:16;8.30;;;6.72;;
41687;SDS011;27371;42.686;23.362;2023-05-14T12:09:43;6.35;;;5.65;;
41687;SDS011;27371;42.686;23.362;2023-05-14T12:12:19;5.93;;;5.35;;
41687;SDS011;27371;42.686;23.362;2023-05-14T12:14:46;6.70;;;5.75;;
41687;SDS011;27371;42.686;23.362;2023-05-14T12:17:19;8.02;;;6.43;;
41687;SDS011;27371;42.686;23.362;2023-05-14T12:19:49;7.18;;;6.13;;
41687;SDS011;27371;42.686;23.362;2023-05-14T12:22:16;7.00;;;6.30;;
41687;SDS011;27371;42.686;23.362;2023-05-14T12:24:53;8.10;;;6.43;;
41687;SDS011;27371;42.686;23.362;2023-05-14T12:29:46;12.38;;;6.30;;
41687;SDS011;27371;42.686;23.362;2023-05-14T12:32:11;7.22;;;6.50;;
41687;SDS011;27371;42.686;23.362;2023-05-14T12:34:38;7.80;;;6.97;;
41687;SDS011;27371;42.686;23.362;2023-05-14T12:37:04;10.13;;;7.90;;
41687;SDS011;27371;42.686;23.362;2023-05-14T12:39:31;7.00;;;6.30;;
41687;SDS011;27371;42.686;23.362;2023-05-14T12:41:58;7.57;;;6.65;;
41687;SDS011;27371;42.686;23.362;2023-05-14T12:44:23;8.68;;;7.13;;
41687;SDS011;27371;42.686;23.362;2023-05-14T12:46:49;10.63;;;8.00;;
41687;SDS011;27371;42.686;23.362;2023-05-14T12:49:14;8.55;;;7.75;;
41687;SDS011;27371;42.686;23.362;2023-05-14T12:51:40;8.75;;;7.85;;
41687;SDS011;27371;42.686;23.362;2023-05-14T12:54:05;9.05;;;7.75;;
41687;SDS011;27371;42.686;23.362;2023-05-14T12:56:31;11.93;;;8.57;;
41687;SDS011;27371;42.686;23.362;2023-05-14T12:58:56;9.63;;;7.50;;
41687;SDS011;27371;42.686;23.362;2023-05-14T13:01:22;10.77;;;8.20;;
41687;SDS011;27371;42.686;23.362;2023-05-14T13:03:48;10.63;;;9.63;;
41687;SDS011;27371;42.686;23.362;2023-05-14T13:06:14;10.65;;;9.55;;
41687;SDS011;27371;42.686;23.362;2023-05-14T13:08:40;9.27;;;8.32;;
41687;SDS011;27371;42.686;23.362;2023-05-14T13:11:05;10.25;;;9.25;;
41687;SDS011;27371;42.686;23.362;2023-05-14T13:13:32;9.98;;;8.65;;
41687;SDS011;27371;42.686;23.362;2023-05-14T13:15:57;11.02;;;9.18;;
41687;SDS011;27371;42.686;23.362;2023-05-14T13:18:23;10.73;;;9.15;;
41687;SDS011;27371;42.686;23.362;2023-05-14T13:20:50;10.15;;;9.10;;
41687;SDS011;27371;42.686;23.362;2023-05-14T13:23:16;13.18;;;9.90;;
41687;SDS011;27371;42.686;23.362;2023-05-14T13:25:41;10.80;;;8.48;;
41687;SDS011;27371;42.686;23.362;2023-05-14T13:28:07;10.23;;;9.18;;
41687;SDS011;27371;42.686;23.362;2023-05-14T13:30:33;12.48;;;10.80;;
41687;SDS011;27371;42.686;23.362;2023-05-14T13:32:58;12.18;;;10.43;;
41687;SDS011;27371;42.686;23.362;2023-05-14T13:35:24;12.30;;;10.63;;
41687;SDS011;27371;42.686;23.362;2023-05-14T13:37:49;12.32;;;11.00;;
41687;SDS011;27371;42.686;23.362;2023-05-14T13:40:15;12.32;;;10.88;;
41687;SDS011;27371;42.686;23.362;2023-05-14T13:42:41;14.00;;;10.38;;
41687;SDS011;27371;42.686;23.362;2023-05-14T13:45:07;11.68;;;10.02;;
41687;SDS011;27371;42.686;23.362;2023-05-14T13:47:32;11.85;;;10.40;;
41687;SDS011;27371;42.686;23.362;2023-05-14T13:49:58;11.68;;;10.48;;
41687;SDS011;27371;42.686;23.362;2023-05-14T13:52:24;13.55;;;11.20;;
41687;SDS011;27371;42.686;23.362;2023-05-14T13:54:50;12.00;;;10.80;;
41687;SDS011;27371;42.686;23.362;2023-05-14T13:57:17;13.18;;;11.88;;
41687;SDS011;27371;42.686;23.362;2023-05-14T13:59:43;15.40;;;12.02;;
41687;SDS011;27371;42.686;23.362;2023-05-14T14:02:10;14.07;;;12.50;;
41687;SDS011;27371;42.686;23.362;2023-05-14T14:04:36;12.95;;;11.65;;
41687;SDS011;27371;42.686;23.362;2023-05-14T14:07:01;13.82;;;12.43;;
41687;SDS011;27371;42.686;23.362;2023-05-14T14:09:27;12.02;;;10.82;;
41687;SDS011;27371;42.686;23.362;2023-05-14T14:11:52;12.95;;;11.65;;
41687;SDS011;27371;42.686;23.362;2023-05-14T14:14:18;12.68;;;11.38;;
41687;SDS011;27371;42.686;23.362;2023-05-14T14:16:43;12.90;;;11.55;;
41687;SDS011;27371;42.686;23.362;2023-05-14T14:19:09;14.30;;;11.75;;
41687;SDS011;27371;42.686;23.362;2023-05-14T14:21:34;11.52;;;10.20;;
41687;SDS011;27371;42.686;23.362;2023-05-14T14:24:03;11.70;;;10.50;;
41687;SDS011;27371;42.686;23.362;2023-05-14T14:26:30;13.10;;;10.63;;
41687;SDS011;27371;42.686;23.362;2023-05-14T14:28:55;12.13;;;10.50;;
41687;SDS011;27371;42.686;23.362;2023-05-14T14:31:21;13.85;;;10.30;;
41687;SDS011;27371;42.686;23.362;2023-05-14T14:33:46;12.73;;;10.13;;
41687;SDS011;27371;42.686;23.362;2023-05-14T14:36:12;11.63;;;10.40;;
41687;SDS011;27371;42.686;23.362;2023-05-14T14:38:37;13.48;;;12.07;;
41687;SDS011;27371;42.686;23.362;2023-05-14T14:41:03;13.00;;;11.35;;
41687;SDS011;27371;42.686;23.362;2023-05-14T14:43:32;12.73;;;11.40;;